sensor_id;sensor_type;location;lat;lon;timestamp;P1;durP1;ratioP1;P2;durP2;ratioP2
6926;SDS011;3503;50.07605000;8.86719200;2023-04-25T00:03:14;8.87;;;4.23;;
6926;SDS011;3503;50.07605000;8.86719200;2023-04-25T00:18:17;16.17;;;5.30;;
6926;SDS011;3503;50.07605000;8.86719200;2023-04-25T00:33:20;7.53;;;3.93;;
6926;SDS011;3503;50.07605000;8.86719200;2023-04-25T00:48:23;7.47;;;3.73;;
6926;SDS011;3503;50.07605000;8.86719200;2023-04-25T01:03:26;7.20;;;4.20;;
6926;SDS011;3503;50.07605000;8.86719200;2023-04-25T01:18:30;6.23;;;3.90;;
6926;SDS011;3503;50.07605000;8.86719200;2023-04-25T01:33:33;8.20;;;4.30;;
6926;SDS011;3503;50.07605000;8.86719200;2023-04-25T01:48:36;7.07;;;3.90;;
6926;SDS011;3503;50.07605000;8.86719200;2023-04-25T02:03:39;11.40;;;4.00;;
6926;SDS011;3503;50.07605000;8.86719200;2023-04-25T02:18:41;7.83;;;4.83;;
6926;SDS011;3503;50.07605000;8.86719200;2023-04-25T02:33:46;11.00;;;4.90;;
6926;SDS011;3503;50.07605000;8.86719200;2023-04-25T02:48:50;7.20;;;3.77;;
6926;SDS011;3503;50.07605000;8.86719200;2023-04-25T03:03:53;7.97;;;5.10;;
6926;SDS011;3503;50.07605000;8.86719200;2023-04-25T03:18:55;10.17;;;5.17;;
6926;SDS011;3503;50.07605000;8.86719200;2023-04-25T03:33:59;16.13;;;7.20;;
6926;SDS011;3503;50.07605000;8.86719200;2023-04-25T03:49:01;11.20;;;7.03;;
6926;SDS011;3503;50.07605000;8.86719200;2023-04-25T04:04:04;16.13;;;7.20;;
6926;SDS011;3503;50.07605000;8.86719200;2023-04-25T04:19:07;13.13;;;8.00;;
6926;SDS011;3503;50.07605000;8.86719200;2023-04-25T04:34:10;18.20;;;8.50;;
6926;SDS011;3503;50.07605000;8.86719200;2023-04-25T04:49:14;18.33;;;7.23;;
6926;SDS011;3503;50.07605000;8.86719200;2023-04-25T05:04:17;21.47;;;6.20;;
6926;SDS011;3503;50.07605000;8.86719200;2023-04-25T05:19:20;17.20;;;6.33;;
6926;SDS011;3503;50.07605000;8.86719200;2023-04-25T05:34:23;18.67;;;5.60;;
6926;SDS011;3503;50.07605000;8.86719200;2023-04-25T05:49:26;20.00;;;5.30;;
6926;SDS011;3503;50.07605000;8.86719200;2023-04-25T06:04:29;12.03;;;4.00;;
6926;SDS011;3503;50.07605000;8.86719200;2023-04-25T06:19:32;12.50;;;3.77;;
6926;SDS011;3503;50.07605000;8.86719200;2023-04-25T06:34:35;9.60;;;3.37;;
6926;SDS011;3503;50.07605000;8.86719200;2023-04-25T06:49:38;18.30;;;3.47;;
6926;SDS011;3503;50.07605000;8.86719200;2023-04-25T07:04:41;11.77;;;2.87;;
6926;SDS011;3503;50.07605000;8.86719200;2023-04-25T07:19:43;6.63;;;3.03;;
6926;SDS011;3503;50.07605000;8.86719200;2023-04-25T07:34:46;8.20;;;3.20;;
6926;SDS011;3503;50.07605000;8.86719200;2023-04-25T07:49:49;7.13;;;3.00;;
6926;SDS011;3503;50.07605000;8.86719200;2023-04-25T08:04:52;14.90;;;2.70;;
6926;SDS011;3503;50.07605000;8.86719200;2023-04-25T08:19:55;12.23;;;3.43;;
6926;SDS011;3503;50.07605000;8.86719200;2023-04-25T08:34:58;6.80;;;2.90;;
6926;SDS011;3503;50.07605000;8.86719200;2023-04-25T08:50:03;8.93;;;4.67;;
6926;SDS011;3503;50.07605000;8.86719200;2023-04-25T09:05:08;8.03;;;2.50;;
6926;SDS011;3503;50.07605000;8.86719200;2023-04-25T09:20:13;7.43;;;2.47;;
6926;SDS011;3503;50.07605000;8.86719200;2023-04-25T09:35:24;5.20;;;2.90;;
6926;SDS011;3503;50.07605000;8.86719200;2023-04-25T09:50:28;4.50;;;2.60;;
6926;SDS011;3503;50.07605000;8.86719200;2023-04-25T10:05:32;8.83;;;4.00;;
6926;SDS011;3503;50.07605000;8.86719200;2023-04-25T10:20:35;6.30;;;3.10;;
6926;SDS011;3503;50.07605000;8.86719200;2023-04-25T10:35:38;10.00;;;3.70;;
6926;SDS011;3503;50.07605000;8.86719200;2023-04-25T10:50:41;10.27;;;3.97;;
6926;SDS011;3503;50.07605000;8.86719200;2023-04-25T11:05:44;11.93;;;3.80;;
6926;SDS011;3503;50.07605000;8.86719200;2023-04-25T11:20:48;6.60;;;3.83;;
6926;SDS011;3503;50.07605000;8.86719200;2023-04-25T11:35:52;6.17;;;3.07;;
6926;SDS011;3503;50.07605000;8.86719200;2023-04-25T11:50:55;4.63;;;2.40;;
6926;SDS011;3503;50.07605000;8.86719200;2023-04-25T12:06:03;5.60;;;2.00;;
6926;SDS011;3503;50.07605000;8.86719200;2023-04-25T12:21:06;4.47;;;2.23;;
6926;SDS011;3503;50.07605000;8.86719200;2023-04-25T12:36:09;4.23;;;1.90;;
6926;SDS011;3503;50.07605000;8.86719200;2023-04-25T12:51:14;12.30;;;2.43;;
6926;SDS011;3503;50.07605000;8.86719200;2023-04-25T13:06:17;11.70;;;2.73;;
6926;SDS011;3503;50.07605000;8.86719200;2023-04-25T13:21:21;8.33;;;2.73;;
6926;SDS011;3503;50.07605000;8.86719200;2023-04-25T13:36:24;5.73;;;2.67;;
6926;SDS011;3503;50.07605000;8.86719200;2023-04-25T13:51:29;5.97;;;2.43;;
6926;SDS011;3503;50.07605000;8.86719200;2023-04-25T14:06:32;24.00;;;12.10;;
6926;SDS011;3503;50.07605000;8.86719200;2023-04-25T14:21:35;8.13;;;2.60;;
6926;SDS011;3503;50.07605000;8.86719200;2023-04-25T14:36:39;7.83;;;2.30;;
6926;SDS011;3503;50.07605000;8.86719200;2023-04-25T14:51:42;6.13;;;1.90;;
6926;SDS011;3503;50.07605000;8.86719200;2023-04-25T15:06:46;6.03;;;1.40;;
6926;SDS011;3503;50.07605000;8.86719200;2023-04-25T15:21:49;6.73;;;1.70;;
6926;SDS011;3503;50.07605000;8.86719200;2023-04-25T15:36:52;10.93;;;1.90;;
6926;SDS011;3503;50.07605000;8.86719200;2023-04-25T15:51:55;8.50;;;1.60;;
6926;SDS011;3503;50.07605000;8.86719200;2023-04-25T16:06:58;4.53;;;1.43;;
6926;SDS011;3503;50.07605000;8.86719200;2023-04-25T16:22:01;5.13;;;1.30;;
6926;SDS011;3503;50.07605000;8.86719200;2023-04-25T16:37:04;8.20;;;1.97;;
6926;SDS011;3503;50.07605000;8.86719200;2023-04-25T16:52:07;4.37;;;1.43;;
6926;SDS011;3503;50.07605000;8.86719200;2023-04-25T17:07:13;3.23;;;1.60;;
6926;SDS011;3503;50.07605000;8.86719200;2023-04-25T17:22:24;4.30;;;1.40;;
6926;SDS011;3503;50.07605000;8.86719200;2023-04-25T17:37:28;7.23;;;1.27;;
6926;SDS011;3503;50.07605000;8.86719200;2023-04-25T17:52:31;10.53;;;1.70;;
6926;SDS011;3503;50.07605000;8.86719200;2023-04-25T18:07:35;11.20;;;1.67;;
6926;SDS011;3503;50.07605000;8.86719200;2023-04-25T18:22:39;5.10;;;1.70;;
6926;SDS011;3503;50.07605000;8.86719200;2023-04-25T18:37:42;17.53;;;1.90;;
6926;SDS011;3503;50.07605000;8.86719200;2023-04-25T18:52:45;5.93;;;1.90;;
6926;SDS011;3503;50.07605000;8.86719200;2023-04-25T19:07:48;4.47;;;1.43;;
6926;SDS011;3503;50.07605000;8.86719200;2023-04-25T19:22:51;5.63;;;2.00;;
6926;SDS011;3503;50.07605000;8.86719200;2023-04-25T19:37:55;8.50;;;2.23;;
6926;SDS011;3503;50.07605000;8.86719200;2023-04-25T19:52:58;5.37;;;2.30;;
6926;SDS011;3503;50.07605000;8.86719200;2023-04-25T20:08:01;4.57;;;1.20;;
6926;SDS011;3503;50.07605000;8.86719200;2023-04-25T20:23:05;7.50;;;1.80;;
6926;SDS011;3503;50.07605000;8.86719200;2023-04-25T20:38:08;4.63;;;1.40;;
6926;SDS011;3503;50.07605000;8.86719200;2023-04-25T20:53:12;10.43;;;1.30;;
6926;SDS011;3503;50.07605000;8.86719200;2023-04-25T21:08:15;6.20;;;1.77;;
6926;SDS011;3503;50.07605000;8.86719200;2023-04-25T21:23:18;7.93;;;1.57;;
6926;SDS011;3503;50.07605000;8.86719200;2023-04-25T21:38:21;6.97;;;1.30;;
6926;SDS011;3503;50.07605000;8.86719200;2023-04-25T21:53:24;4.63;;;1.30;;
6926;SDS011;3503;50.07605000;8.86719200;2023-04-25T22:08:27;2.90;;;1.60;;
6926;SDS011;3503;50.07605000;8.86719200;2023-04-25T22:23:31;4.63;;;2.00;;
6926;SDS011;3503;50.07605000;8.86719200;2023-04-25T22:38:34;13.53;;;2.40;;
6926;SDS011;3503;50.07605000;8.86719200;2023-04-25T22:53:40;6.83;;;3.00;;
6926;SDS011;3503;50.07605000;8.86719200;2023-04-25T23:08:43;4.80;;;2.30;;
6926;SDS011;3503;50.07605000;8.86719200;2023-04-25T23:23:46;10.87;;;2.47;;
6926;SDS011;3503;50.07605000;8.86719200;2023-04-25T23:38:49;4.30;;;1.60;;
6926;SDS011;3503;50.07605000;8.86719200;2023-04-25T23:53:52;5.10;;;1.40;;
